Time;durP1;ratioP1;P1;durP2;ratioP2;P2;SDS_P1;SDS_P2;PMS_P1;PMS_P2;Temp;Humidity;BMP_temperature;BMP_pressure;BME280_temperature;BME280_humidity;BME280_pressure;Samples;Min_cycle;Max_cycle;Signal;HPM_P1;HPM_P2
2022/07/04 00:01:31;;;;;;;5.00;4.15;;;;;;;-141.48;100.00;69781.59;4976875;29;20054;-80
2022/07/04 00:05:00;;;;;;;3.38;3.28;;;;;;;-141.48;100.00;69781.59;4977855;29;20038;-80
2022/07/04 00:08:29;;;;;;;4.30;4.10;;;;;;;-141.48;100.00;69781.59;4978016;29;20035;-80
2022/07/04 00:11:58;;;;;;;7.05;3.53;;;;;;;-141.48;100.00;69781.59;4977551;29;20391;-80
2022/07/04 00:15:27;;;;;;;4.75;4.35;;;;;;;-141.48;100.00;69781.59;4977537;29;20105;-80
2022/07/04 00:18:56;;;;;;;3.60;3.50;;;;;;;-141.48;100.00;69781.59;4961373;29;20030;-80
2022/07/04 00:22:25;;;;;;;5.28;4.88;;;;;;;-141.48;100.00;69781.59;4979725;29;20030;-79
2022/07/04 00:25:54;;;;;;;3.67;3.42;;;;;;;-141.48;100.00;69781.59;4976950;29;20031;-81
2022/07/04 00:29:23;;;;;;;4.30;4.00;;;;;;;-141.48;100.00;69781.59;4960752;29;20501;-80
2022/07/04 00:32:52;;;;;;;3.38;3.25;;;;;;;-141.48;100.00;69781.59;4959725;29;20034;-79
2022/07/04 00:36:21;;;;;;;4.25;3.85;;;;;;;-141.48;100.00;69781.59;4976724;29;20037;-80
2022/07/04 00:39:50;;;;;;;4.37;4.10;;;;;;;-141.48;100.00;69781.59;4976943;29;20038;-80
2022/07/04 00:43:23;;;;;;;3.63;3.42;;;;;;;-141.48;100.00;69781.59;4959501;29;20035;-80
2022/07/04 00:46:52;;;;;;;3.63;3.53;;;;;;;-141.48;100.00;69781.59;4960395;29;20019;-81
2022/07/04 00:50:21;;;;;;;3.85;3.63;;;;;;;-141.48;100.00;69781.59;4976177;29;20026;-79
2022/07/04 00:53:52;;;;;;;4.57;4.30;;;;;;;-141.48;100.00;69781.59;4972897;29;20034;-80
2022/07/04 00:57:22;;;;;;;4.55;4.20;;;;;;;-141.48;100.00;69781.59;4958456;29;20115;-80
2022/07/04 01:00:51;;;;;;;5.15;4.75;;;;;;;-141.48;100.00;69781.59;4958698;29;20142;-80
2022/07/04 01:04:21;;;;;;;4.82;3.60;;;;;;;-141.48;100.00;69781.59;4960276;29;20065;-80
2022/07/04 01:07:50;;;;;;;7.50;4.78;;;;;;;-141.48;100.00;69781.59;4960029;29;20125;-80
2022/07/04 01:11:19;;;;;;;3.90;3.67;;;;;;;-141.48;100.00;69781.59;4976232;29;20022;-80
2022/07/04 01:14:48;;;;;;;3.15;3.05;;;;;;;-141.48;100.00;69781.59;4975556;29;20050;-79
2022/07/04 01:18:17;;;;;;;5.25;5.05;;;;;;;-141.48;100.00;69781.59;4974097;29;20267;-79
2022/07/04 01:21:47;;;;;;;3.40;3.20;;;;;;;-141.48;100.00;69781.59;4988934;24;20063;-66
2022/07/04 01:25:16;;;;;;;3.70;3.50;;;;;;;-141.48;100.00;69781.59;4951061;29;20039;-66
2022/07/04 01:28:45;;;;;;;7.05;4.15;;;;;;;-141.48;100.00;69781.59;4968140;29;20283;-67
2022/07/04 01:32:14;;;;;;;7.77;4.67;;;;;;;-141.48;100.00;69781.59;4967832;29;20042;-66
2022/07/04 01:35:43;;;;;;;4.03;3.83;;;;;;;-141.48;100.00;69781.59;4967076;29;20121;-68
2022/07/04 01:39:13;;;;;;;4.07;3.88;;;;;;;-141.48;100.00;69781.59;4968153;29;20109;-66
2022/07/04 01:42:42;;;;;;;5.55;4.35;;;;;;;-141.48;100.00;69781.59;4971042;29;20035;-68
2022/07/04 01:46:11;;;;;;;4.57;4.38;;;;;;;-141.48;100.00;69781.59;4954330;29;20118;-67
2022/07/04 01:49:40;;;;;;;6.72;4.32;;;;;;;-141.48;100.00;69781.59;4971290;29;20030;-66
2022/07/04 01:53:09;;;;;;;5.38;4.97;;;;;;;-141.48;100.00;69781.59;4970965;29;20034;-66
2022/07/04 01:56:38;;;;;;;4.70;4.43;;;;;;;-141.48;100.00;69781.59;4970396;29;20054;-67
2022/07/04 02:03:57;;;;;;;5.38;4.97;;;;;;;-141.48;100.00;69781.59;4971269;29;20078;-67
2022/07/04 02:07:26;;;;;;;5.95;5.57;;;;;;;-141.48;100.00;69781.59;4969736;29;20030;-66
2022/07/04 02:10:55;;;;;;;3.97;3.60;;;;;;;-141.48;100.00;69781.59;4970893;29;20025;-68
2022/07/04 02:14:24;;;;;;;5.22;4.93;;;;;;;-141.48;100.00;69781.59;4969033;29;20046;-67
2022/07/04 02:17:53;;;;;;;4.75;4.55;;;;;;;-141.48;100.00;69781.59;4970850;29;20034;-68
2022/07/04 02:21:22;;;;;;;6.78;4.55;;;;;;;-141.48;100.00;69781.59;4970464;29;20095;-66
2022/07/04 02:24:51;;;;;;;4.45;4.15;;;;;;;-141.48;100.00;69781.59;4970015;29;20408;-67
2022/07/04 02:28:20;;;;;;;4.55;4.35;;;;;;;-141.48;100.00;69781.59;4970463;29;20019;-65
2022/07/04 02:31:49;;;;;;;4.05;3.80;;;;;;;-141.48;100.00;69781.59;4970580;29;20404;-65
2022/07/04 02:35:18;;;;;;;5.95;5.65;;;;;;;-141.48;100.00;69781.59;4969796;29;20129;-65
2022/07/04 02:38:47;;;;;;;4.30;4.00;;;;;;;-141.48;100.00;69781.59;4970354;29;20031;-67
2022/07/04 02:42:15;;;;;;;5.72;4.90;;;;;;;-141.48;100.00;69781.59;4970118;29;20105;-65
2022/07/04 02:45:41;;;;;;;8.93;5.47;;;;;;;-141.48;100.00;69781.59;4969677;29;20019;-66
2022/07/04 02:49:10;;;;;;;5.53;4.90;;;;;;;-141.48;100.00;69781.59;4970142;29;20034;-65
2022/07/04 02:52:38;;;;;;;6.63;6.13;;;;;;;-141.48;100.00;69781.59;4970138;29;20062;-66
2022/07/04 02:56:07;;;;;;;5.90;5.32;;;;;;;-141.48;100.00;69781.59;4969395;29;20481;-67
2022/07/04 02:59:36;;;;;;;6.38;5.88;;;;;;;-141.48;100.00;69781.59;4970422;29;20581;-66
2022/07/04 03:03:05;;;;;;;4.53;4.25;;;;;;;-141.48;100.00;69781.59;4970037;29;20149;-65
2022/07/04 03:06:34;;;;;;;6.03;5.28;;;;;;;-141.48;100.00;69781.59;4969494;29;20042;-66
2022/07/04 03:10:03;;;;;;;5.80;5.43;;;;;;;-141.48;100.00;69781.59;4970177;29;20087;-65
2022/07/04 03:13:32;;;;;;;5.55;5.05;;;;;;;-141.48;100.00;69781.59;4970112;29;20039;-69
2022/07/04 03:17:01;;;;;;;5.72;5.38;;;;;;;-141.48;100.00;69781.59;4969840;29;20035;-66
2022/07/04 03:20:30;;;;;;;5.88;5.47;;;;;;;-141.48;100.00;69781.59;4969803;29;20465;-66
2022/07/04 03:23:59;;;;;;;10.77;7.00;;;;;;;-141.48;100.00;69781.59;4969668;29;20038;-66
2022/07/04 03:27:30;;;;;;;8.10;7.43;;;;;;;-141.48;100.00;69781.59;4969729;29;20102;-65
2022/07/04 03:30:58;;;;;;;6.95;6.45;;;;;;;-141.48;100.00;69781.59;4969880;29;20507;-65
2022/07/04 03:34:27;;;;;;;6.18;5.57;;;;;;;-141.48;100.00;69781.59;4968980;29;20039;-68
2022/07/04 03:37:57;;;;;;;6.05;5.65;;;;;;;-141.48;100.00;69781.59;4969405;29;20023;-65
2022/07/04 03:41:26;;;;;;;7.33;6.90;;;;;;;-141.48;100.00;69781.59;4969217;29;20117;-68
2022/07/04 03:44:55;;;;;;;7.03;6.63;;;;;;;-141.48;100.00;69781.59;4968711;29;20062;-65
2022/07/04 03:48:24;;;;;;;9.95;6.65;;;;;;;-141.48;100.00;69781.59;4969560;29;20106;-65
2022/07/04 03:51:53;;;;;;;7.32;6.10;;;;;;;-141.48;100.00;69781.59;4967815;29;20026;-67
2022/07/04 03:55:19;;;;;;;7.95;7.25;;;;;;;-141.48;100.00;69781.59;4968497;29;20034;-66
2022/07/04 03:58:48;;;;;;;8.07;7.47;;;;;;;-141.48;100.00;69781.59;4967916;29;20472;-65
2022/07/04 04:02:18;;;;;;;7.88;7.10;;;;;;;-141.48;100.00;69781.59;4968455;29;20066;-67
2022/07/04 04:05:47;;;;;;;8.32;7.55;;;;;;;-141.48;100.00;69781.59;4968431;29;20023;-65
2022/07/04 04:09:19;;;;;;;8.18;7.40;;;;;;;-141.48;100.00;69781.59;4968904;29;20037;-66
2022/07/04 04:12:48;;;;;;;8.10;7.32;;;;;;;-141.48;100.00;69781.59;4966333;29;20026;-67
2022/07/04 04:16:23;;;;;;;14.60;7.60;;;;;;;-141.48;100.00;69781.59;4966628;29;20066;-65
2022/07/04 04:19:52;;;;;;;8.05;7.10;;;;;;;-141.48;100.00;69781.59;4967316;29;20038;-66
2022/07/04 04:23:21;;;;;;;7.97;7.35;;;;;;;-141.48;100.00;69781.59;4967310;29;20511;-66
2022/07/04 04:26:50;;;;;;;9.93;5.82;;;;;;;-141.48;100.00;69781.59;4968657;29;20027;-69
2022/07/04 04:30:19;;;;;;;9.98;7.18;;;;;;;-141.48;100.00;69781.59;4968612;29;20039;-67
2022/07/04 04:33:47;;;;;;;8.80;8.05;;;;;;;-141.48;100.00;69781.59;4968761;29;20035;-65
2022/07/04 04:37:08;;;;;;;8.13;7.30;;;;;;;-141.48;100.00;69781.59;4968808;29;20034;-66
2022/07/04 04:40:02;;;;;;;6.38;5.88;;;;;;;-141.48;100.00;69781.59;4968323;29;20519;-66
2022/07/04 04:43:31;;;;;;;7.55;6.80;;;;;;;-141.48;100.00;69781.59;4968329;29;20035;-68
2022/07/04 04:47:00;;;;;;;7.03;6.35;;;;;;;-141.48;100.00;69781.59;4967097;29;20027;-66
2022/07/04 04:50:29;;;;;;;7.32;6.72;;;;;;;-141.48;100.00;69781.59;4968403;29;20034;-66
2022/07/04 04:53:58;;;;;;;5.97;5.57;;;;;;;-141.48;100.00;69781.59;4966826;29;20118;-69
2022/07/04 04:57:27;;;;;;;9.00;5.82;;;;;;;-141.48;100.00;69781.59;4968260;29;20033;-67
2022/07/04 05:00:56;;;;;;;6.57;5.00;;;;;;;-141.48;100.00;69781.59;4968124;29;20094;-69
2022/07/04 05:04:25;;;;;;;9.90;5.00;;;;;;;-141.48;100.00;69781.59;4967434;29;20049;-67
2022/07/04 05:07:55;;;;;;;8.57;7.45;;;;;;;-141.48;100.00;69781.59;4967988;29;20051;-67
2022/07/04 05:11:24;;;;;;;10.65;5.68;;;;;;;-141.48;100.00;69781.59;4967878;29;20026;-66
2022/07/04 05:13:56;;;;;;;5.97;5.32;;;;;;;-141.48;100.00;69781.59;4970233;29;20165;-67
2022/07/04 05:16:28;;;;;;;5.65;5.35;;;;;;;-141.48;100.00;69781.59;4971850;29;20026;-65
2022/07/04 05:19:02;;;;;;;4.13;3.85;;;;;;;-141.48;100.00;69781.59;4971784;29;20216;-67
2022/07/04 05:21:32;;;;;;;9.23;6.15;;;;;;;-141.48;100.00;69781.59;4971359;29;20484;-67
2022/07/04 05:25:02;;;;;;;6.72;5.82;;;;;;;-141.48;100.00;69781.59;4964746;29;20034;-69
2022/07/04 05:28:30;;;;;;;6.32;5.93;;;;;;;-141.48;100.00;69781.59;4971211;29;20050;-65
2022/07/04 05:32:00;;;;;;;7.85;5.10;;;;;;;-141.48;100.00;69781.59;4971585;29;20030;-66
2022/07/04 05:35:30;;;;;;;8.23;5.75;;;;;;;-141.48;100.00;69781.59;4970379;29;20034;-65
2022/07/04 05:38:59;;;;;;;5.57;5.13;;;;;;;-141.48;100.00;69781.59;4954807;29;20026;-66
2022/07/04 05:42:28;;;;;;;6.30;5.57;;;;;;;-141.48;100.00;69781.59;4971229;29;20446;-66
2022/07/04 05:45:56;;;;;;;5.03;4.60;;;;;;;-141.48;100.00;69781.59;4953908;29;20480;-68
2022/07/04 05:49:25;;;;;;;5.97;5.45;;;;;;;-141.48;100.00;69781.59;4966778;29;20038;-66
2022/07/04 05:52:54;;;;;;;12.57;5.10;;;;;;;-141.48;100.00;69781.59;4970617;29;20076;-66
2022/07/04 05:56:23;;;;;;;5.97;5.43;;;;;;;-141.48;100.00;69781.59;4970114;29;20034;-69
2022/07/04 05:59:52;;;;;;;5.87;5.43;;;;;;;-141.48;100.00;69781.59;4971133;29;20069;-66
2022/07/04 06:03:21;;;;;;;10.10;4.10;;;;;;;-141.48;100.00;69781.59;4971119;29;20241;-66
2022/07/04 06:06:50;;;;;;;8.17;5.00;;;;;;;-141.48;100.00;69781.59;4970199;29;20030;-67
2022/07/04 06:10:19;;;;;;;3.70;3.50;;;;;;;-141.48;100.00;69781.59;4969642;29;20295;-66
2022/07/04 06:13:49;;;;;;;3.90;3.60;;;;;;;-141.48;100.00;69781.59;4970834;29;20073;-67
2022/07/04 06:17:18;;;;;;;5.03;4.47;;;;;;;-141.48;100.00;69781.59;4970619;29;20469;-70
2022/07/04 06:20:47;;;;;;;5.63;5.15;;;;;;;-141.48;100.00;69781.59;4970750;29;20500;-68
2022/07/04 06:24:16;;;;;;;9.67;4.63;;;;;;;-141.48;100.00;69781.59;4969177;29;20035;-66
2022/07/04 06:27:46;;;;;;;3.40;3.10;;;;;;;-141.48;100.00;69781.59;4971251;29;20478;-66
2022/07/04 06:31:15;;;;;;;4.05;3.70;;;;;;;-141.48;100.00;69781.59;4971440;29;20034;-66
2022/07/04 06:38:31;;;;;;;3.63;3.38;;;;;;;-141.48;100.00;69781.59;4970775;29;20530;-65
2022/07/04 06:42:00;;;;;;;3.13;3.03;;;;;;;-141.48;100.00;69781.59;4970876;29;20039;-65
2022/07/04 06:45:29;;;;;;;4.47;2.83;;;;;;;-141.48;100.00;69781.59;4970494;29;20481;-64
2022/07/04 06:48:59;;;;;;;18.55;3.47;;;;;;;-141.48;100.00;69781.59;4969705;29;20041;-64
2022/07/04 06:52:28;;;;;;;6.93;2.78;;;;;;;-141.48;100.00;69781.59;4970545;29;20030;-63
2022/07/04 06:55:57;;;;;;;5.07;3.00;;;;;;;-141.48;100.00;69781.59;4969938;29;20035;-64
2022/07/04 06:59:25;;;;;;;5.32;3.72;;;;;;;-141.48;100.00;69781.59;4970437;29;20026;-64
2022/07/04 07:02:37;;;;;;;2.17;2.00;;;;;;;-141.48;100.00;69781.59;4970649;29;20035;-62
2022/07/04 07:05:07;;;;;;;3.35;3.05;;;;;;;-141.48;100.00;69781.59;4969744;29;20027;-63
2022/07/04 07:07:38;;;;;;;3.45;3.25;;;;;;;-141.48;100.00;69781.59;4969968;29;20034;-64
2022/07/04 07:10:09;;;;;;;3.75;3.50;;;;;;;-141.48;100.00;69781.59;4970382;29;20034;-62
2022/07/04 07:12:39;;;;;;;11.40;3.45;;;;;;;-141.48;100.00;69781.59;4970114;29;20127;-65
2022/07/04 07:15:10;;;;;;;4.70;4.10;;;;;;;-141.48;100.00;69781.59;4968297;29;20483;-64
2022/07/04 07:17:40;;;;;;;3.08;2.90;;;;;;;-141.48;100.00;69781.59;4969956;29;20026;-64
2022/07/04 07:20:13;;;;;;;2.75;2.55;;;;;;;-141.48;100.00;69781.59;4988607;24;20054;-59
2022/07/04 07:22:43;;;;;;;3.45;3.13;;;;;;;-141.48;100.00;69781.59;4986994;29;20038;-62
2022/07/04 07:25:14;;;;;;;6.80;3.17;;;;;;;-141.48;100.00;69781.59;4970519;29;20034;-61
2022/07/04 07:27:44;;;;;;;4.13;3.03;;;;;;;-141.48;100.00;69781.59;4968354;29;20192;-60
2022/07/04 07:30:15;;;;;;;4.18;3.47;;;;;;;-141.48;100.00;69781.59;4951976;29;20027;-61
2022/07/04 07:32:45;;;;;;;5.18;3.38;;;;;;;-141.48;100.00;69781.59;4968748;29;20251;-61
2022/07/04 07:35:16;;;;;;;2.85;2.28;;;;;;;-141.48;100.00;69781.59;4966943;29;20436;-62
2022/07/04 07:37:46;;;;;;;8.35;2.55;;;;;;;-141.48;100.00;69781.59;4968391;29;20027;-62
2022/07/04 07:40:17;;;;;;;15.27;2.97;;;;;;;-141.48;100.00;69781.59;4968330;29;20536;-62
2022/07/04 07:42:47;;;;;;;12.88;4.03;;;;;;;-141.48;100.00;69781.59;4968202;29;20027;-62
2022/07/04 07:45:17;;;;;;;4.63;4.03;;;;;;;-141.48;100.00;69781.59;4951114;29;20030;-62
2022/07/04 07:47:48;;;;;;;8.05;3.38;;;;;;;-141.48;100.00;69781.59;4967004;29;20182;-62
2022/07/04 07:50:18;;;;;;;2.92;2.70;;;;;;;-141.48;100.00;69781.59;4967910;29;20026;-60
2022/07/04 07:52:49;;;;;;;4.97;2.55;;;;;;;-141.48;100.00;69781.59;4951819;29;20027;-61
2022/07/04 07:55:19;;;;;;;2.72;1.92;;;;;;;-141.48;100.00;69781.59;4967659;29;20030;-62
2022/07/04 07:57:49;;;;;;;2.65;2.17;;;;;;;-141.48;100.00;69781.59;4968074;29;20031;-60
2022/07/04 08:00:20;;;;;;;3.20;2.83;;;;;;;-141.48;100.00;69781.59;4959910;29;20027;-61
2022/07/04 08:05:39;;;;;;;3.45;3.15;;;;;;;-141.48;100.00;69781.59;4963791;29;20223;-58
2022/07/04 08:08:10;;;;;;;2.65;2.55;;;;;;;-141.48;100.00;69781.59;4965877;29;20019;-61
2022/07/04 08:10:40;;;;;;;7.07;3.58;;;;;;;-141.48;100.00;69781.59;4966776;29;20193;-59
2022/07/04 08:13:11;;;;;;;3.15;2.25;;;;;;;-141.48;100.00;69781.59;4965382;29;20042;-60
2022/07/04 08:15:41;;;;;;;7.38;3.03;;;;;;;-141.48;100.00;69781.59;4964209;29;20046;-61
2022/07/04 08:18:12;;;;;;;2.25;2.15;;;;;;;-141.48;100.00;69781.59;4966332;29;20035;-58
2022/07/04 08:20:42;;;;;;;1.85;1.73;;;;;;;-141.48;100.00;69781.59;4966550;29;20037;-61
2022/07/04 08:23:13;;;;;;;2.78;2.67;;;;;;;-141.48;100.00;69781.59;4965735;29;20034;-61
2022/07/04 08:25:43;;;;;;;1.63;1.52;;;;;;;-141.48;100.00;69781.59;4966202;29;20030;-59
2022/07/04 08:28:13;;;;;;;4.35;2.53;;;;;;;-141.48;100.00;69781.59;4962636;29;20035;-59
2022/07/04 08:30:44;;;;;;;2.53;2.33;;;;;;;-141.48;100.00;69781.59;4967419;29;20130;-59
2022/07/04 08:33:14;;;;;;;1.50;1.50;;;;;;;-141.48;100.00;69781.59;4965856;29;20030;-60
2022/07/04 08:35:45;;;;;;;3.80;3.13;;;;;;;-141.48;100.00;69781.59;4966663;29;20037;-59
2022/07/04 08:38:17;;;;;;;5.70;2.83;;;;;;;-141.48;100.00;69781.59;4965057;29;20062;-59
2022/07/04 08:40:50;;;;;;;1.65;1.65;;;;;;;-141.48;100.00;69781.59;4965713;29;20197;-59
2022/07/04 08:43:23;;;;;;;2.72;2.03;;;;;;;-141.48;100.00;69781.59;4964504;29;20030;-61
2022/07/04 08:45:54;;;;;;;1.83;1.80;;;;;;;-141.48;100.00;69781.59;4950188;29;20091;-59
2022/07/04 08:48:28;;;;;;;2.88;2.67;;;;;;;-141.48;100.00;69781.59;4949131;29;20072;-60
2022/07/04 08:51:27;;;;;;;5.97;2.08;;;;;;;-141.48;100.00;69781.59;4940412;29;20030;-61
2022/07/04 08:53:57;;;;;;;7.18;2.10;;;;;;;-141.48;100.00;69781.59;4966283;29;20026;-59
2022/07/04 08:59:17;;;;;;;9.93;3.88;;;;;;;-141.48;100.00;69781.59;4966026;29;20049;-59
2022/07/04 09:01:47;;;;;;;2.72;2.55;;;;;;;-141.48;100.00;69781.59;4966739;29;20030;-60
2022/07/04 09:04:20;;;;;;;2.47;2.28;;;;;;;-141.48;100.00;69781.59;4949694;29;20039;-60
2022/07/04 09:07:28;;;;;;;2.38;2.17;;;;;;;-141.48;100.00;69781.59;4949704;29;20294;-60
2022/07/04 09:09:59;;;;;;;4.05;2.05;;;;;;;-141.48;100.00;69781.59;4952931;29;20060;-60
2022/07/04 09:12:30;;;;;;;2.65;2.40;;;;;;;-141.48;100.00;69781.59;4971022;29;20031;-59
2022/07/04 09:15:01;;;;;;;1.73;1.52;;;;;;;-141.48;100.00;69781.59;4949476;29;20125;-60
2022/07/04 09:17:33;;;;;;;2.97;2.67;;;;;;;-141.48;100.00;69781.59;4965601;29;20602;-60
2022/07/04 09:20:16;;;;;;;1.88;1.80;;;;;;;-141.48;100.00;69781.59;4965678;29;20117;-60
2022/07/04 09:22:49;;;;;;;1.70;1.60;;;;;;;-141.48;100.00;69781.59;4966465;29;20499;-60
2022/07/04 09:25:21;;;;;;;2.17;2.08;;;;;;;-141.48;100.00;69781.59;4959972;29;20031;-60
2022/07/04 09:28:11;;;;;;;2.83;2.70;;;;;;;-141.48;100.00;69781.59;4948535;29;20419;-60
2022/07/04 09:30:51;;;;;;;7.22;3.53;;;;;;;-141.48;100.00;69781.59;4947062;29;20458;-60
2022/07/04 09:34:04;;;;;;;;;;;;;;;-141.48;100.00;69781.59;4964444;29;20050;-60
2022/07/04 09:36:41;;;;;;;12.43;3.45;;;;;;;-141.48;100.00;69781.59;4925861;30;20411;-60
2022/07/04 09:39:14;;;;;;;2.72;2.53;;;;;;;-141.48;100.00;69781.59;4960298;29;20073;-59
2022/07/04 09:42:01;;;;;;;3.60;2.28;;;;;;;-141.48;100.00;69781.59;4965610;29;20023;-60
2022/07/04 09:45:32;;;;;;;5.43;3.97;;;;;;;-141.48;100.00;69781.59;4963525;29;20058;-59
2022/07/04 09:48:11;;;;;;;2.25;2.13;;;;;;;-141.48;100.00;69781.59;4965262;29;20030;-59
2022/07/04 09:50:42;;;;;;;4.13;2.65;;;;;;;-141.48;100.00;69781.59;4948504;29;20145;-59
2022/07/04 09:53:14;;;;;;;9.93;2.90;;;;;;;-141.48;100.00;69781.59;4965485;29;20031;-59
2022/07/04 09:55:49;;;;;;;2.42;2.22;;;;;;;-141.48;100.00;69781.59;4966372;29;20041;-57
2022/07/04 09:58:19;;;;;;;3.65;2.80;;;;;;;-141.48;100.00;69781.59;4966282;29;20441;-58
2022/07/04 10:00:51;;;;;;;1.77;1.77;;;;;;;-141.48;100.00;69781.59;4968250;29;20050;-58
2022/07/04 10:03:32;;;;;;;3.03;2.55;;;;;;;-141.48;100.00;69781.59;4952442;29;20046;-60
2022/07/04 10:06:06;;;;;;;2.38;1.92;;;;;;;-141.48;100.00;69781.59;4969244;29;20034;-59
2022/07/04 10:09:36;;;;;;;9.27;3.13;;;;;;;-141.48;100.00;69781.59;4968937;29;20088;-59
2022/07/04 10:13:08;;;;;;;2.28;1.70;;;;;;;-141.48;100.00;69781.59;4969244;29;20080;-59
2022/07/04 10:16:01;;;;;;;1.90;1.80;;;;;;;-141.48;100.00;69781.59;4960413;29;20476;-58
2022/07/04 10:18:57;;;;;;;4.75;2.20;;;;;;;-141.48;100.00;69781.59;4969092;29;20129;-59
2022/07/04 10:22:12;;;;;;;3.20;2.47;;;;;;;-141.48;100.00;69781.59;4966187;29;20035;-59
2022/07/04 10:24:44;;;;;;;2.00;1.90;;;;;;;-141.48;100.00;69781.59;4967324;29;20037;-59
2022/07/04 10:27:15;;;;;;;1.95;1.63;;;;;;;-141.48;100.00;69781.59;4967641;29;20031;-59
2022/07/04 10:29:45;;;;;;;4.53;2.80;;;;;;;-141.48;100.00;69781.59;4967932;29;20034;-58
2022/07/04 10:32:17;;;;;;;5.45;3.33;;;;;;;-141.48;100.00;69781.59;4968346;29;20030;-59
2022/07/04 10:34:47;;;;;;;3.63;2.67;;;;;;;-141.48;100.00;69781.59;4967742;29;20095;-59
2022/07/04 10:37:18;;;;;;;2.25;2.08;;;;;;;-141.48;100.00;69781.59;4950917;29;20027;-60
2022/07/04 10:39:48;;;;;;;1.92;1.83;;;;;;;-141.48;100.00;69781.59;4936830;29;20111;-60
2022/07/04 10:42:25;;;;;;;1.90;1.80;;;;;;;-141.48;100.00;69781.59;4951911;29;20038;-59
2022/07/04 10:45:00;;;;;;;2.83;2.50;;;;;;;-141.48;100.00;69781.59;4967377;29;20118;-59
2022/07/04 10:47:31;;;;;;;2.47;2.33;;;;;;;-141.48;100.00;69781.59;4967586;29;20369;-60
2022/07/04 10:50:33;;;;;;;1.88;1.77;;;;;;;-141.48;100.00;69781.59;4968266;29;20037;-59
2022/07/04 10:54:35;;;;;;;1.92;1.83;;;;;;;-141.48;100.00;69781.59;4967694;29;20034;-60
2022/07/04 10:58:07;;;;;;;11.63;4.13;;;;;;;-141.48;100.00;69781.59;4949278;29;20046;-60
2022/07/04 11:01:37;;;;;;;3.38;2.28;;;;;;;-141.48;100.00;69781.59;4951642;29;20118;-60
2022/07/04 11:05:09;;;;;;;1.67;1.65;;;;;;;-141.48;100.00;69781.59;4968463;29;20162;-60
2022/07/04 11:12:52;;;;;;;;;;;;;;;-141.48;100.00;69781.59;5562540;24;20421;-91
2022/07/04 11:16:50;;;;;;;2.58;2.38;;;;;;;-141.48;100.00;69781.59;4952014;30;19937;-91
2022/07/04 11:20:21;;;;;;;1.92;1.90;;;;;;;-141.48;100.00;69781.59;4974396;29;20043;-90
2022/07/04 11:23:50;;;;;;;1.67;1.63;;;;;;;-141.48;100.00;69781.59;4959987;29;20035;-90
2022/07/04 11:27:22;;;;;;;2.13;1.92;;;;;;;-141.48;100.00;69781.59;4960937;29;20077;-90
2022/07/04 11:30:56;;;;;;;1.77;1.67;;;;;;;-141.48;100.00;69781.59;4960556;29;20131;-91
2022/07/04 11:34:31;;;;;;;2.35;2.15;;;;;;;-141.48;100.00;69781.59;4957142;29;20047;-90
2022/07/04 11:38:00;;;;;;;4.88;2.55;;;;;;;-141.48;100.00;69781.59;4958294;30;20035;-90
2022/07/04 11:45:34;;;;;;;3.22;2.30;;;;;;;-141.48;100.00;69781.59;4955122;30;20053;-91
2022/07/04 11:49:10;;;;;;;3.42;2.42;;;;;;;-141.48;100.00;69781.59;4940967;29;20360;-91
2022/07/04 11:52:48;;;;;;;4.03;3.00;;;;;;;-141.48;100.00;69781.59;4958895;29;20351;-91
2022/07/04 11:56:18;;;;;;;4.50;2.95;;;;;;;-141.48;100.00;69781.59;4956409;29;20418;-90
2022/07/04 11:59:54;;;;;;;2.42;2.30;;;;;;;-141.48;100.00;69781.59;4958188;29;20079;-91
2022/07/04 12:03:23;;;;;;;3.35;2.38;;;;;;;-141.48;100.00;69781.59;4980377;29;20030;-91
2022/07/04 12:07:20;;;;;;;5.32;2.72;;;;;;;-141.48;100.00;69781.59;4978214;29;20060;-92
2022/07/04 12:12:03;;;;;;;2.72;2.63;;;;;;;-141.48;100.00;69781.59;4968889;29;20038;-93
2022/07/04 12:20:19;;;;;;;7.40;3.90;;;;;;;-141.48;100.00;69781.59;4846203;30;20056;-92
2022/07/04 12:23:58;;;;;;;2.88;2.58;;;;;;;-141.48;100.00;69781.59;4965709;29;20046;-59
2022/07/04 12:27:27;;;;;;;3.70;2.00;;;;;;;-141.48;100.00;69781.59;4951287;29;20022;-59
2022/07/04 12:30:58;;;;;;;2.47;2.30;;;;;;;-141.48;100.00;69781.59;4947851;30;20035;-59
2022/07/04 12:34:27;;;;;;;2.65;2.35;;;;;;;-141.48;100.00;69781.59;4934284;29;20035;-60
2022/07/04 12:38:03;;;;;;;2.55;1.90;;;;;;;-141.48;100.00;69781.59;4958851;29;20028;-59
2022/07/04 12:41:32;;;;;;;7.13;2.75;;;;;;;-141.48;100.00;69781.59;4970601;29;20046;-59
2022/07/04 12:45:05;;;;;;;2.40;2.30;;;;;;;-141.48;100.00;69781.59;4970270;29;20116;-59
2022/07/04 12:48:34;;;;;;;6.45;2.70;;;;;;;-141.48;100.00;69781.59;4944432;29;20023;-59
2022/07/04 12:52:16;;;;;;;4.00;3.53;;;;;;;-141.48;100.00;69781.59;4951502;29;20031;-59
2022/07/04 12:56:00;;;;;;;2.65;2.45;;;;;;;-141.48;100.00;69781.59;4967473;29;20102;-58
2022/07/04 12:59:29;;;;;;;2.70;2.47;;;;;;;-141.48;100.00;69781.59;4959156;29;20035;-57
2022/07/04 13:02:58;;;;;;;5.97;2.22;;;;;;;-141.48;100.00;69781.59;4950136;30;20092;-57
2022/07/04 13:06:27;;;;;;;2.60;2.10;;;;;;;-141.48;100.00;69781.59;4948682;30;20027;-58
2022/07/04 13:09:56;;;;;;;3.90;3.60;;;;;;;-141.48;100.00;69781.59;4932956;30;20023;-59
2022/07/04 13:13:25;;;;;;;3.45;3.08;;;;;;;-141.48;100.00;69781.59;4932953;30;20027;-59
2022/07/04 13:16:54;;;;;;;2.85;2.65;;;;;;;-141.48;100.00;69781.59;4941423;30;20465;-59
2022/07/04 13:20:23;;;;;;;2.47;2.28;;;;;;;-141.48;100.00;69781.59;4949192;30;20031;-59
2022/07/04 13:23:52;;;;;;;2.75;1.83;;;;;;;-141.48;100.00;69781.59;4950118;30;20470;-63
2022/07/04 13:27:21;;;;;;;2.97;2.55;;;;;;;-141.48;100.00;69781.59;4932290;30;20028;-62
2022/07/04 13:30:50;;;;;;;2.65;2.47;;;;;;;-141.48;100.00;69781.59;4931524;30;20412;-64
2022/07/04 13:34:19;;;;;;;2.38;2.03;;;;;;;-141.48;100.00;69781.59;4931485;30;20221;-63
2022/07/04 13:37:48;;;;;;;7.00;3.08;;;;;;;-141.48;100.00;69781.59;4935719;30;20103;-64
2022/07/04 13:41:17;;;;;;;7.45;2.63;;;;;;;-141.48;100.00;69781.59;4933269;30;20020;-63
2022/07/04 13:44:46;;;;;;;1.98;1.88;;;;;;;-141.48;100.00;69781.59;4933062;30;20069;-63
2022/07/04 13:48:15;;;;;;;4.28;1.98;;;;;;;-141.48;100.00;69781.59;4918587;30;20038;-66
2022/07/04 13:51:44;;;;;;;2.65;2.45;;;;;;;-141.48;100.00;69781.59;4934688;30;20035;-64
2022/07/04 13:55:13;;;;;;;3.63;2.45;;;;;;;-141.48;100.00;69781.59;4933369;30;20038;-63
2022/07/04 13:58:44;;;;;;;1.85;1.75;;;;;;;-141.48;100.00;69781.59;4934260;30;20071;-64
2022/07/04 14:02:13;;;;;;;3.08;2.88;;;;;;;-141.48;100.00;69781.59;4951879;30;20043;-64
2022/07/04 14:05:42;;;;;;;3.00;2.90;;;;;;;-141.48;100.00;69781.59;4950632;30;20121;-65
2022/07/04 14:09:11;;;;;;;3.75;3.55;;;;;;;-141.48;100.00;69781.59;4952813;30;20385;-63
2022/07/04 14:12:40;;;;;;;3.30;3.10;;;;;;;-141.48;100.00;69781.59;4951960;30;20496;-65
2022/07/04 14:16:09;;;;;;;3.65;3.50;;;;;;;-141.48;100.00;69781.59;4952568;30;20114;-65
2022/07/04 14:19:38;;;;;;;2.95;2.75;;;;;;;-141.48;100.00;69781.59;4951097;30;20031;-63
2022/07/04 14:23:07;;;;;;;;;;;;;;;-141.48;100.00;69781.59;4952454;30;20047;-65
2022/07/04 14:26:36;;;;;;;4.05;3.63;;;;;;;-141.48;100.00;69781.59;4951892;29;19920;-65
2022/07/04 14:30:06;;;;;;;3.90;3.55;;;;;;;-141.48;100.00;69781.59;4952714;30;20023;-66
2022/07/04 14:33:35;;;;;;;3.30;3.10;;;;;;;-141.48;100.00;69781.59;4951119;30;20034;-63
2022/07/04 14:37:04;;;;;;;3.92;3.20;;;;;;;-141.48;100.00;69781.59;4952402;29;20112;-65
2022/07/04 14:40:33;;;;;;;3.35;3.05;;;;;;;-141.48;100.00;69781.59;4951691;30;20102;-63
2022/07/04 14:44:02;;;;;;;8.13;4.53;;;;;;;-141.48;100.00;69781.59;4947421;30;20106;-65
2022/07/04 14:47:34;;;;;;;3.72;3.53;;;;;;;-141.48;100.00;69781.59;4944557;29;20027;-65
2022/07/04 14:51:04;;;;;;;2.75;2.60;;;;;;;-141.48;100.00;69781.59;4933845;30;20387;-65
2022/07/04 14:54:32;;;;;;;3.13;2.92;;;;;;;-141.48;100.00;69781.59;4930781;30;20132;-66
2022/07/04 14:58:02;;;;;;;2.80;2.67;;;;;;;-141.48;100.00;69781.59;4931647;30;20081;-66
2022/07/04 15:01:31;;;;;;;3.10;2.67;;;;;;;-141.48;100.00;69781.59;4933594;30;20051;-65